sensor_id;sensor_type;location;lat;lon;timestamp;temperature;humidity
1025;DHT22;501;48.214;11.350;2022-12-08T00:01:21;3.00;53.30
1025;DHT22;501;48.214;11.350;2022-12-08T00:03:47;3.00;53.60
1025;DHT22;501;48.214;11.350;2022-12-08T00:06:28;3.00;53.20
1025;DHT22;501;48.214;11.350;2022-12-08T00:19:21;3.00;53.00
1025;DHT22;501;48.214;11.350;2022-12-08T00:21:47;3.00;53.20
1025;DHT22;501;48.214;11.350;2022-12-08T00:24:12;3.00;53.20
1025;DHT22;501;48.214;11.350;2022-12-08T00:26:38;3.00;53.10
1025;DHT22;501;48.214;11.350;2022-12-08T00:29:04;3.00;52.90
1025;DHT22;501;48.214;11.350;2022-12-08T00:31:30;3.00;52.60
1025;DHT22;501;48.214;11.350;2022-12-08T00:33:57;3.00;52.60
1025;DHT22;501;48.214;11.350;2022-12-08T00:36:22;3.00;52.60
1025;DHT22;501;48.214;11.350;2022-12-08T00:38:48;3.00;52.60
1025;DHT22;501;48.214;11.350;2022-12-08T00:41:19;3.00;53.00
1025;DHT22;501;48.214;11.350;2022-12-08T00:44:09;3.00;53.20
1025;DHT22;501;48.214;11.350;2022-12-08T00:46:36;3.00;52.80
1025;DHT22;501;48.214;11.350;2022-12-08T00:49:03;3.00;52.60
1025;DHT22;501;48.214;11.350;2022-12-08T00:51:29;3.00;53.30
1025;DHT22;501;48.214;11.350;2022-12-08T00:53:54;3.00;53.20
1025;DHT22;501;48.214;11.350;2022-12-08T00:56:20;3.00;53.60
1025;DHT22;501;48.214;11.350;2022-12-08T00:58:46;3.00;53.70
1025;DHT22;501;48.214;11.350;2022-12-08T01:01:12;3.00;53.70
1025;DHT22;501;48.214;11.350;2022-12-08T01:03:39;3.00;53.50
1025;DHT22;501;48.214;11.350;2022-12-08T01:06:06;3.00;53.50
1025;DHT22;501;48.214;11.350;2022-12-08T01:08:32;3.00;53.50
1025;DHT22;501;48.214;11.350;2022-12-08T01:11:06;3.00;53.60
1025;DHT22;501;48.214;11.350;2022-12-08T01:13:33;3.00;53.90
1025;DHT22;501;48.214;11.350;2022-12-08T01:15:59;3.00;53.90
1025;DHT22;501;48.214;11.350;2022-12-08T01:18:26;3.00;53.80
1025;DHT22;501;48.214;11.350;2022-12-08T01:20:52;3.00;53.60
1025;DHT22;501;48.214;11.350;2022-12-08T01:23:18;3.00;53.70
1025;DHT22;501;48.214;11.350;2022-12-08T01:25:43;3.00;54.00
1025;DHT22;501;48.214;11.350;2022-12-08T01:28:09;3.00;54.10
1025;DHT22;501;48.214;11.350;2022-12-08T01:30:38;3.00;53.80
1025;DHT22;501;48.214;11.350;2022-12-08T01:33:04;2.90;53.80
1025;DHT22;501;48.214;11.350;2022-12-08T01:35:29;2.90;54.00
1025;DHT22;501;48.214;11.350;2022-12-08T01:37:58;2.90;54.20
1025;DHT22;501;48.214;11.350;2022-12-08T01:40:26;2.90;54.10
1025;DHT22;501;48.214;11.350;2022-12-08T01:42:52;2.90;53.80
1025;DHT22;501;48.214;11.350;2022-12-08T01:45:25;3.00;53.90
1025;DHT22;501;48.214;11.350;2022-12-08T01:48:04;3.00;53.90
1025;DHT22;501;48.214;11.350;2022-12-08T01:50:31;3.00;53.50
1025;DHT22;501;48.214;11.350;2022-12-08T01:53:13;2.90;53.10
1025;DHT22;501;48.214;11.350;2022-12-08T01:55:47;2.90;53.30
1025;DHT22;501;48.214;11.350;2022-12-08T02:00:50;2.90;53.60
1025;DHT22;501;48.214;11.350;2022-12-08T02:03:21;2.90;53.90
1025;DHT22;501;48.214;11.350;2022-12-08T02:05:48;2.90;53.60
1025;DHT22;501;48.214;11.350;2022-12-08T02:08:14;2.90;53.30
1025;DHT22;501;48.214;11.350;2022-12-08T02:10:41;2.90;53.90
1025;DHT22;501;48.214;11.350;2022-12-08T02:13:10;2.90;53.60
1025;DHT22;501;48.214;11.350;2022-12-08T02:18:49;3.00;54.10
1025;DHT22;501;48.214;11.350;2022-12-08T02:24:40;2.90;53.20
1025;DHT22;501;48.214;11.350;2022-12-08T02:36:10;2.90;53.80
1025;DHT22;501;48.214;11.350;2022-12-08T02:39:08;2.90;53.80
1025;DHT22;501;48.214;11.350;2022-12-08T02:41:48;2.80;54.10
1025;DHT22;501;48.214;11.350;2022-12-08T02:44:26;2.80;54.50
1025;DHT22;501;48.214;11.350;2022-12-08T02:47:13;2.80;54.50
1025;DHT22;501;48.214;11.350;2022-12-08T02:49:40;2.80;54.50
1025;DHT22;501;48.214;11.350;2022-12-08T02:54:46;2.80;53.90
1025;DHT22;501;48.214;11.350;2022-12-08T03:00:08;2.70;53.60
1025;DHT22;501;48.214;11.350;2022-12-08T03:03:18;2.80;53.60
1025;DHT22;501;48.214;11.350;2022-12-08T03:11:08;2.60;53.40
1025;DHT22;501;48.214;11.350;2022-12-08T03:13:42;2.60;53.70
1025;DHT22;501;48.214;11.350;2022-12-08T03:16:12;2.60;53.90
1025;DHT22;501;48.214;11.350;2022-12-08T03:18:46;2.60;54.30
1025;DHT22;501;48.214;11.350;2022-12-08T03:21:14;2.50;54.30
1025;DHT22;501;48.214;11.350;2022-12-08T03:23:43;2.60;54.10
1025;DHT22;501;48.214;11.350;2022-12-08T03:26:32;2.60;53.90
1025;DHT22;501;48.214;11.350;2022-12-08T03:28:59;2.50;53.70
1025;DHT22;501;48.214;11.350;2022-12-08T03:31:27;2.50;53.40
1025;DHT22;501;48.214;11.350;2022-12-08T03:33:57;2.40;53.10
1025;DHT22;501;48.214;11.350;2022-12-08T03:36:24;2.40;53.50
1025;DHT22;501;48.214;11.350;2022-12-08T03:38:51;2.40;53.60
1025;DHT22;501;48.214;11.350;2022-12-08T03:41:17;2.40;53.80
1025;DHT22;501;48.214;11.350;2022-12-08T03:43:48;2.40;53.60
1025;DHT22;501;48.214;11.350;2022-12-08T03:46:19;2.30;53.60
1025;DHT22;501;48.214;11.350;2022-12-08T03:48:46;2.30;53.90
1025;DHT22;501;48.214;11.350;2022-12-08T03:51:12;2.30;54.20
1025;DHT22;501;48.214;11.350;2022-12-08T03:53:38;2.30;54.40
1025;DHT22;501;48.214;11.350;2022-12-08T03:58:41;2.30;54.80
1025;DHT22;501;48.214;11.350;2022-12-08T04:01:07;2.30;54.70
1025;DHT22;501;48.214;11.350;2022-12-08T04:03:33;2.40;54.80
1025;DHT22;501;48.214;11.350;2022-12-08T04:05:58;2.40;54.70
1025;DHT22;501;48.214;11.350;2022-12-08T04:08:24;2.40;54.90
1025;DHT22;501;48.214;11.350;2022-12-08T04:10:50;2.40;55.20
1025;DHT22;501;48.214;11.350;2022-12-08T04:13:16;2.40;55.20
1025;DHT22;501;48.214;11.350;2022-12-08T04:15:46;2.40;55.10
1025;DHT22;501;48.214;11.350;2022-12-08T04:18:12;2.40;55.30
1025;DHT22;501;48.214;11.350;2022-12-08T04:20:42;2.40;55.60
1025;DHT22;501;48.214;11.350;2022-12-08T04:23:09;2.40;55.80
1025;DHT22;501;48.214;11.350;2022-12-08T04:25:36;2.40;55.40
1025;DHT22;501;48.214;11.350;2022-12-08T04:28:02;2.40;55.60
1025;DHT22;501;48.214;11.350;2022-12-08T04:30:28;2.40;55.60
1025;DHT22;501;48.214;11.350;2022-12-08T04:32:54;2.40;55.30
1025;DHT22;501;48.214;11.350;2022-12-08T04:35:19;2.40;55.30
1025;DHT22;501;48.214;11.350;2022-12-08T04:37:45;2.40;55.50
1025;DHT22;501;48.214;11.350;2022-12-08T04:40:11;2.40;55.70
1025;DHT22;501;48.214;11.350;2022-12-08T04:42:37;2.40;55.60
1025;DHT22;501;48.214;11.350;2022-12-08T04:45:04;2.40;55.50
1025;DHT22;501;48.214;11.350;2022-12-08T04:47:30;2.40;55.80
1025;DHT22;501;48.214;11.350;2022-12-08T04:49:56;2.40;56.00
1025;DHT22;501;48.214;11.350;2022-12-08T04:52:21;2.40;56.00
1025;DHT22;501;48.214;11.350;2022-12-08T04:54:47;2.40;56.00
1025;DHT22;501;48.214;11.350;2022-12-08T04:57:13;2.40;56.20
1025;DHT22;501;48.214;11.350;2022-12-08T04:59:39;2.40;56.20
1025;DHT22;501;48.214;11.350;2022-12-08T05:02:04;2.40;56.40
1025;DHT22;501;48.214;11.350;2022-12-08T05:04:30;2.40;56.30
1025;DHT22;501;48.214;11.350;2022-12-08T05:06:56;2.40;56.30
1025;DHT22;501;48.214;11.350;2022-12-08T05:09:21;2.40;56.30
1025;DHT22;501;48.214;11.350;2022-12-08T05:11:47;2.40;56.20
1025;DHT22;501;48.214;11.350;2022-12-08T05:14:14;2.40;56.10
1025;DHT22;501;48.214;11.350;2022-12-08T05:16:41;2.40;55.90
1025;DHT22;501;48.214;11.350;2022-12-08T05:19:07;2.40;55.80
1025;DHT22;501;48.214;11.350;2022-12-08T05:21:32;2.50;56.00
1025;DHT22;501;48.214;11.350;2022-12-08T05:23:58;2.50;55.70
1025;DHT22;501;48.214;11.350;2022-12-08T05:26:24;2.50;55.60
1025;DHT22;501;48.214;11.350;2022-12-08T05:28:49;2.50;55.70
1025;DHT22;501;48.214;11.350;2022-12-08T05:31:16;2.50;56.00
1025;DHT22;501;48.214;11.350;2022-12-08T05:33:43;2.40;55.70
1025;DHT22;501;48.214;11.350;2022-12-08T05:36:11;2.40;56.00
1025;DHT22;501;48.214;11.350;2022-12-08T05:38:38;2.40;55.90
1025;DHT22;501;48.214;11.350;2022-12-08T05:41:07;2.40;55.60
1025;DHT22;501;48.214;11.350;2022-12-08T05:43:33;2.40;56.00
1025;DHT22;501;48.214;11.350;2022-12-08T05:45:59;2.40;56.20
1025;DHT22;501;48.214;11.350;2022-12-08T05:48:25;2.50;56.40
1025;DHT22;501;48.214;11.350;2022-12-08T05:50:52;2.40;56.40
1025;DHT22;501;48.214;11.350;2022-12-08T05:53:18;2.40;56.30
1025;DHT22;501;48.214;11.350;2022-12-08T05:55:45;2.40;56.60
1025;DHT22;501;48.214;11.350;2022-12-08T05:58:13;2.40;56.40
1025;DHT22;501;48.214;11.350;2022-12-08T06:00:39;2.40;55.90
1025;DHT22;501;48.214;11.350;2022-12-08T06:03:05;2.50;55.90
1025;DHT22;501;48.214;11.350;2022-12-08T06:05:34;2.50;55.70
1025;DHT22;501;48.214;11.350;2022-12-08T06:08:00;2.50;55.10
1025;DHT22;501;48.214;11.350;2022-12-08T06:10:26;2.50;55.20
1025;DHT22;501;48.214;11.350;2022-12-08T06:12:52;2.50;55.60
1025;DHT22;501;48.214;11.350;2022-12-08T06:15:17;2.40;56.00
1025;DHT22;501;48.214;11.350;2022-12-08T06:17:43;2.40;56.10
1025;DHT22;501;48.214;11.350;2022-12-08T06:20:09;2.40;56.00
1025;DHT22;501;48.214;11.350;2022-12-08T06:22:35;2.40;55.90
1025;DHT22;501;48.214;11.350;2022-12-08T06:25:01;2.40;55.90
1025;DHT22;501;48.214;11.350;2022-12-08T06:27:27;2.40;56.10
1025;DHT22;501;48.214;11.350;2022-12-08T06:29:52;2.40;56.50
1025;DHT22;501;48.214;11.350;2022-12-08T06:32:18;2.40;56.90
1025;DHT22;501;48.214;11.350;2022-12-08T06:34:44;2.40;56.90
1025;DHT22;501;48.214;11.350;2022-12-08T06:37:10;2.40;57.10
1025;DHT22;501;48.214;11.350;2022-12-08T06:39:35;2.40;57.00
1025;DHT22;501;48.214;11.350;2022-12-08T06:42:01;2.50;57.10
1025;DHT22;501;48.214;11.350;2022-12-08T06:44:45;2.40;56.90
1025;DHT22;501;48.214;11.350;2022-12-08T06:47:14;2.40;56.50
1025;DHT22;501;48.214;11.350;2022-12-08T06:49:39;2.40;56.30
1025;DHT22;501;48.214;11.350;2022-12-08T06:52:05;2.40;56.60
1025;DHT22;501;48.214;11.350;2022-12-08T06:54:30;2.40;56.80
1025;DHT22;501;48.214;11.350;2022-12-08T06:56:58;2.40;56.40
1025;DHT22;501;48.214;11.350;2022-12-08T06:59:24;2.40;56.60
1025;DHT22;501;48.214;11.350;2022-12-08T07:01:53;2.30;56.70
1025;DHT22;501;48.214;11.350;2022-12-08T07:04:19;2.30;57.10
1025;DHT22;501;48.214;11.350;2022-12-08T07:06:47;2.30;57.20
1025;DHT22;501;48.214;11.350;2022-12-08T07:09:13;2.30;57.30
1025;DHT22;501;48.214;11.350;2022-12-08T07:11:39;2.30;57.90
1025;DHT22;501;48.214;11.350;2022-12-08T07:14:04;2.30;58.20
1025;DHT22;501;48.214;11.350;2022-12-08T07:16:30;2.30;58.40
1025;DHT22;501;48.214;11.350;2022-12-08T07:18:55;2.30;58.60
1025;DHT22;501;48.214;11.350;2022-12-08T07:21:21;2.30;58.60
1025;DHT22;501;48.214;11.350;2022-12-08T07:23:48;2.30;58.80
1025;DHT22;501;48.214;11.350;2022-12-08T07:26:14;2.30;59.40
1025;DHT22;501;48.214;11.350;2022-12-08T07:28:41;2.20;59.90
1025;DHT22;501;48.214;11.350;2022-12-08T07:31:15;2.20;60.20
1025;DHT22;501;48.214;11.350;2022-12-08T07:33:41;2.20;59.80
1025;DHT22;501;48.214;11.350;2022-12-08T07:36:07;2.30;60.20
1025;DHT22;501;48.214;11.350;2022-12-08T07:38:33;2.30;60.30
1025;DHT22;501;48.214;11.350;2022-12-08T07:40:59;2.20;60.20
1025;DHT22;501;48.214;11.350;2022-12-08T07:43:25;2.20;60.40
1025;DHT22;501;48.214;11.350;2022-12-08T07:45:53;2.20;60.90
1025;DHT22;501;48.214;11.350;2022-12-08T07:48:19;2.30;61.30
1025;DHT22;501;48.214;11.350;2022-12-08T07:50:45;2.30;61.60
1025;DHT22;501;48.214;11.350;2022-12-08T07:53:11;2.30;60.90
1025;DHT22;501;48.214;11.350;2022-12-08T07:55:43;2.40;61.20
1025;DHT22;501;48.214;11.350;2022-12-08T07:58:09;2.40;61.00
1025;DHT22;501;48.214;11.350;2022-12-08T08:00:35;2.40;60.90
1025;DHT22;501;48.214;11.350;2022-12-08T08:03:01;2.50;61.10
1025;DHT22;501;48.214;11.350;2022-12-08T08:05:27;2.50;60.50
1025;DHT22;501;48.214;11.350;2022-12-08T08:07:52;2.60;60.50
1025;DHT22;501;48.214;11.350;2022-12-08T08:10:18;2.60;60.50
1025;DHT22;501;48.214;11.350;2022-12-08T08:12:44;2.60;60.60
1025;DHT22;501;48.214;11.350;2022-12-08T08:15:09;2.60;60.50
1025;DHT22;501;48.214;11.350;2022-12-08T08:17:36;2.70;60.70
1025;DHT22;501;48.214;11.350;2022-12-08T08:20:03;2.70;60.70
1025;DHT22;501;48.214;11.350;2022-12-08T08:22:31;2.80;60.70
1025;DHT22;501;48.214;11.350;2022-12-08T08:24:57;2.80;60.70
1025;DHT22;501;48.214;11.350;2022-12-08T08:27:23;2.80;60.70
1025;DHT22;501;48.214;11.350;2022-12-08T08:29:49;2.90;59.80
1025;DHT22;501;48.214;11.350;2022-12-08T08:32:15;2.90;59.00
1025;DHT22;501;48.214;11.350;2022-12-08T08:34:42;3.00;58.80
1025;DHT22;501;48.214;11.350;2022-12-08T08:37:07;3.00;58.90
1025;DHT22;501;48.214;11.350;2022-12-08T08:39:33;3.10;58.90
1025;DHT22;501;48.214;11.350;2022-12-08T08:41:58;3.10;58.50
1025;DHT22;501;48.214;11.350;2022-12-08T08:44:24;3.10;58.50
1025;DHT22;501;48.214;11.350;2022-12-08T08:46:50;3.10;57.90
1025;DHT22;501;48.214;11.350;2022-12-08T08:49:15;3.20;57.60
1025;DHT22;501;48.214;11.350;2022-12-08T08:51:42;3.20;57.20
1025;DHT22;501;48.214;11.350;2022-12-08T08:54:08;3.30;57.10
1025;DHT22;501;48.214;11.350;2022-12-08T08:56:36;3.30;56.90
1025;DHT22;501;48.214;11.350;2022-12-08T08:59:02;3.40;55.80
1025;DHT22;501;48.214;11.350;2022-12-08T09:01:28;3.40;55.90
1025;DHT22;501;48.214;11.350;2022-12-08T09:03:55;3.40;55.40
1025;DHT22;501;48.214;11.350;2022-12-08T09:06:21;3.50;55.40
1025;DHT22;501;48.214;11.350;2022-12-08T09:08:48;3.40;54.30
1025;DHT22;501;48.214;11.350;2022-12-08T09:11:17;3.50;53.00
1025;DHT22;501;48.214;11.350;2022-12-08T09:13:48;3.40;53.10
1025;DHT22;501;48.214;11.350;2022-12-08T09:16:14;3.30;53.80
1025;DHT22;501;48.214;11.350;2022-12-08T09:18:40;3.30;54.30
1025;DHT22;501;48.214;11.350;2022-12-08T09:21:14;3.30;54.30
1025;DHT22;501;48.214;11.350;2022-12-08T09:23:42;3.40;55.40
1025;DHT22;501;48.214;11.350;2022-12-08T09:26:07;3.40;55.00
1025;DHT22;501;48.214;11.350;2022-12-08T09:28:33;3.40;54.70
1025;DHT22;501;48.214;11.350;2022-12-08T09:30:59;3.50;54.50
1025;DHT22;501;48.214;11.350;2022-12-08T09:33:25;3.50;54.60
1025;DHT22;501;48.214;11.350;2022-12-08T09:35:51;3.60;53.90
1025;DHT22;501;48.214;11.350;2022-12-08T09:38:17;3.60;53.80
1025;DHT22;501;48.214;11.350;2022-12-08T09:40:51;3.60;53.60
1025;DHT22;501;48.214;11.350;2022-12-08T09:45:55;3.70;53.20
1025;DHT22;501;48.214;11.350;2022-12-08T09:48:25;3.80;53.20
1025;DHT22;501;48.214;11.350;2022-12-08T09:50:55;3.80;52.40
1025;DHT22;501;48.214;11.350;2022-12-08T09:53:29;3.80;52.30
1025;DHT22;501;48.214;11.350;2022-12-08T09:56:03;3.90;52.10
1025;DHT22;501;48.214;11.350;2022-12-08T10:01:11;4.00;52.10
1025;DHT22;501;48.214;11.350;2022-12-08T10:03:40;4.10;52.40
1025;DHT22;501;48.214;11.350;2022-12-08T10:11:31;4.30;51.30
1025;DHT22;501;48.214;11.350;2022-12-08T10:14:33;4.30;50.40
1025;DHT22;501;48.214;11.350;2022-12-08T10:16:55;4.40;49.80
1025;DHT22;501;48.214;11.350;2022-12-08T10:19:26;4.40;49.50
1025;DHT22;501;48.214;11.350;2022-12-08T10:21:52;4.40;49.50
1025;DHT22;501;48.214;11.350;2022-12-08T10:24:35;4.50;49.70
1025;DHT22;501;48.214;11.350;2022-12-08T10:27:04;4.50;49.20
1025;DHT22;501;48.214;11.350;2022-12-08T10:29:34;4.60;48.50
1025;DHT22;501;48.214;11.350;2022-12-08T10:32:00;4.60;48.50
1025;DHT22;501;48.214;11.350;2022-12-08T10:34:34;4.60;48.50
1025;DHT22;501;48.214;11.350;2022-12-08T10:36:59;4.70;48.20
1025;DHT22;501;48.214;11.350;2022-12-08T10:39:37;4.70;47.20
1025;DHT22;501;48.214;11.350;2022-12-08T10:42:19;4.70;46.20
1025;DHT22;501;48.214;11.350;2022-12-08T10:45:08;4.70;47.00
1025;DHT22;501;48.214;11.350;2022-12-08T10:47:41;4.80;46.90
1025;DHT22;501;48.214;11.350;2022-12-08T10:50:20;4.80;46.50
1025;DHT22;501;48.214;11.350;2022-12-08T10:53:11;4.80;46.40
1025;DHT22;501;48.214;11.350;2022-12-08T11:01:02;4.90;47.40
1025;DHT22;501;48.214;11.350;2022-12-08T11:03:38;4.90;47.40
1025;DHT22;501;48.214;11.350;2022-12-08T11:06:34;4.90;46.20
1025;DHT22;501;48.214;11.350;2022-12-08T11:09:03;4.90;46.80
1025;DHT22;501;48.214;11.350;2022-12-08T11:14:17;4.90;46.60
1025;DHT22;501;48.214;11.350;2022-12-08T11:16:43;5.00;45.70
1025;DHT22;501;48.214;11.350;2022-12-08T11:19:15;5.00;45.70
1025;DHT22;501;48.214;11.350;2022-12-08T11:21:41;5.00;45.70
1025;DHT22;501;48.214;11.350;2022-12-08T11:24:23;5.00;46.20
1025;DHT22;501;48.214;11.350;2022-12-08T11:27:02;5.00;46.60
1025;DHT22;501;48.214;11.350;2022-12-08T11:29:31;5.10;47.00
1025;DHT22;501;48.214;11.350;2022-12-08T11:32:10;5.10;46.90
1025;DHT22;501;48.214;11.350;2022-12-08T11:37:38;5.20;47.00
1025;DHT22;501;48.214;11.350;2022-12-08T11:40:06;5.20;46.30
1025;DHT22;501;48.214;11.350;2022-12-08T11:45:38;5.30;46.00
1025;DHT22;501;48.214;11.350;2022-12-08T11:51:08;5.40;45.50
1025;DHT22;501;48.214;11.350;2022-12-08T11:56:50;5.40;44.00
1025;DHT22;501;48.214;11.350;2022-12-08T12:01:52;5.40;43.90
1025;DHT22;501;48.214;11.350;2022-12-08T12:09:40;5.50;42.90
1025;DHT22;501;48.214;11.350;2022-12-08T12:20:25;5.50;43.50
1025;DHT22;501;48.214;11.350;2022-12-08T12:23:06;5.60;43.20
1025;DHT22;501;48.214;11.350;2022-12-08T12:25:37;5.60;42.70
1025;DHT22;501;48.214;11.350;2022-12-08T12:28:11;5.50;42.30
1025;DHT22;501;48.214;11.350;2022-12-08T12:33:30;5.50;43.30
1025;DHT22;501;48.214;11.350;2022-12-08T12:35:57;5.50;41.60
1025;DHT22;501;48.214;11.350;2022-12-08T12:38:37;5.50;42.60
1025;DHT22;501;48.214;11.350;2022-12-08T12:42:03;5.50;42.60
1025;DHT22;501;48.214;11.350;2022-12-08T12:47:02;5.50;43.40
1025;DHT22;501;48.214;11.350;2022-12-08T12:50:04;5.60;43.30
1025;DHT22;501;48.214;11.350;2022-12-08T12:57:35;5.60;41.70
1025;DHT22;501;48.214;11.350;2022-12-08T13:07:58;5.50;42.10
1025;DHT22;501;48.214;11.350;2022-12-08T13:10:28;5.50;42.30
1025;DHT22;501;48.214;11.350;2022-12-08T13:15:38;5.50;42.70
1025;DHT22;501;48.214;11.350;2022-12-08T13:18:51;5.50;43.20
1025;DHT22;501;48.214;11.350;2022-12-08T13:21:03;5.50;43.40
1025;DHT22;501;48.214;11.350;2022-12-08T13:26:22;5.50;42.80
1025;DHT22;501;48.214;11.350;2022-12-08T13:34:06;5.30;44.00
1025;DHT22;501;48.214;11.350;2022-12-08T13:36:39;5.30;43.90
1025;DHT22;501;48.214;11.350;2022-12-08T13:39:14;5.30;43.90
1025;DHT22;501;48.214;11.350;2022-12-08T13:41:50;5.30;44.70
1025;DHT22;501;48.214;11.350;2022-12-08T13:44:43;5.30;44.90
1025;DHT22;501;48.214;11.350;2022-12-08T13:47:15;5.30;44.80
1025;DHT22;501;48.214;11.350;2022-12-08T13:49:49;5.30;43.50
1025;DHT22;501;48.214;11.350;2022-12-08T13:52:20;5.20;43.50
1025;DHT22;501;48.214;11.350;2022-12-08T13:54:51;5.20;44.30
1025;DHT22;501;48.214;11.350;2022-12-08T13:57:31;5.10;44.90
1025;DHT22;501;48.214;11.350;2022-12-08T14:00:13;5.20;45.10
1025;DHT22;501;48.214;11.350;2022-12-08T14:02:45;5.10;45.20
1025;DHT22;501;48.214;11.350;2022-12-08T14:05:12;5.10;46.50
1025;DHT22;501;48.214;11.350;2022-12-08T14:07:39;5.10;45.60
1025;DHT22;501;48.214;11.350;2022-12-08T14:10:21;5.00;45.60
1025;DHT22;501;48.214;11.350;2022-12-08T14:13:02;5.00;45.70
1025;DHT22;501;48.214;11.350;2022-12-08T14:15:31;5.00;45.70
1025;DHT22;501;48.214;11.350;2022-12-08T14:17:57;5.00;45.70
1025;DHT22;501;48.214;11.350;2022-12-08T14:20:34;4.90;46.30
1025;DHT22;501;48.214;11.350;2022-12-08T14:23:05;4.90;45.70
1025;DHT22;501;48.214;11.350;2022-12-08T14:25:32;4.90;45.60
1025;DHT22;501;48.214;11.350;2022-12-08T14:28:02;4.90;45.60
1025;DHT22;501;48.214;11.350;2022-12-08T14:30:30;4.80;46.00
1025;DHT22;501;48.214;11.350;2022-12-08T14:32:58;4.80;46.50
1025;DHT22;501;48.214;11.350;2022-12-08T14:35:28;4.80;47.10
1025;DHT22;501;48.214;11.350;2022-12-08T14:37:56;4.80;47.10
1025;DHT22;501;48.214;11.350;2022-12-08T14:40:32;4.80;46.90
1025;DHT22;501;48.214;11.350;2022-12-08T14:45:45;4.70;46.70
1025;DHT22;501;48.214;11.350;2022-12-08T14:53:58;4.70;47.30
1025;DHT22;501;48.214;11.350;2022-12-08T14:56:50;4.60;47.40
1025;DHT22;501;48.214;11.350;2022-12-08T15:05:08;4.50;47.90
1025;DHT22;501;48.214;11.350;2022-12-08T15:07:48;4.50;48.20
1025;DHT22;501;48.214;11.350;2022-12-08T15:12:55;4.50;48.70
1025;DHT22;501;48.214;11.350;2022-12-08T15:15:21;4.40;48.60
1025;DHT22;501;48.214;11.350;2022-12-08T15:17:50;4.40;48.80
1025;DHT22;501;48.214;11.350;2022-12-08T15:23:14;4.30;49.00
1025;DHT22;501;48.214;11.350;2022-12-08T15:25:42;4.30;48.70
1025;DHT22;501;48.214;11.350;2022-12-08T15:28:11;4.30;48.80
1025;DHT22;501;48.214;11.350;2022-12-08T15:30:40;4.30;49.00
1025;DHT22;501;48.214;11.350;2022-12-08T15:33:06;4.20;49.10
1025;DHT22;501;48.214;11.350;2022-12-08T15:35:32;4.20;49.10
1025;DHT22;501;48.214;11.350;2022-12-08T15:37:57;4.20;49.30
1025;DHT22;501;48.214;11.350;2022-12-08T15:40:23;4.10;49.30
1025;DHT22;501;48.214;11.350;2022-12-08T15:42:51;4.10;49.40
1025;DHT22;501;48.214;11.350;2022-12-08T15:45:17;4.10;49.70
1025;DHT22;501;48.214;11.350;2022-12-08T15:47:43;4.10;50.00
1025;DHT22;501;48.214;11.350;2022-12-08T15:50:21;4.10;50.00
1025;DHT22;501;48.214;11.350;2022-12-08T15:52:47;4.10;50.10
1025;DHT22;501;48.214;11.350;2022-12-08T15:55:15;4.00;49.90
1025;DHT22;501;48.214;11.350;2022-12-08T15:57:54;4.00;50.00
1025;DHT22;501;48.214;11.350;2022-12-08T16:02:52;4.00;50.40
1025;DHT22;501;48.214;11.350;2022-12-08T16:05:18;3.90;50.50
1025;DHT22;501;48.214;11.350;2022-12-08T16:07:43;3.90;50.50
1025;DHT22;501;48.214;11.350;2022-12-08T16:10:15;3.90;50.40
1025;DHT22;501;48.214;11.350;2022-12-08T16:12:42;3.80;50.30
1025;DHT22;501;48.214;11.350;2022-12-08T16:15:26;3.80;50.40
1025;DHT22;501;48.214;11.350;2022-12-08T16:17:52;3.70;50.60
1025;DHT22;501;48.214;11.350;2022-12-08T16:20:18;3.70;51.00
1025;DHT22;501;48.214;11.350;2022-12-08T16:22:44;3.70;51.30
1025;DHT22;501;48.214;11.350;2022-12-08T16:25:10;3.70;51.60
1025;DHT22;501;48.214;11.350;2022-12-08T16:27:38;3.70;51.70
1025;DHT22;501;48.214;11.350;2022-12-08T16:30:05;3.60;51.90
1025;DHT22;501;48.214;11.350;2022-12-08T16:32:32;3.60;51.90
1025;DHT22;501;48.214;11.350;2022-12-08T16:34:57;3.60;51.80
1025;DHT22;501;48.214;11.350;2022-12-08T16:37:25;3.60;51.90
1025;DHT22;501;48.214;11.350;2022-12-08T16:39:52;3.60;50.90
1025;DHT22;501;48.214;11.350;2022-12-08T16:42:26;3.50;50.50
1025;DHT22;501;48.214;11.350;2022-12-08T16:45:28;3.50;51.20
1025;DHT22;501;48.214;11.350;2022-12-08T16:47:58;3.50;51.10
1025;DHT22;501;48.214;11.350;2022-12-08T16:50:26;3.50;50.80
1025;DHT22;501;48.214;11.350;2022-12-08T16:53:03;3.40;51.10
1025;DHT22;501;48.214;11.350;2022-12-08T16:55:29;3.40;51.30
1025;DHT22;501;48.214;11.350;2022-12-08T16:57:55;3.40;51.30
1025;DHT22;501;48.214;11.350;2022-12-08T17:00:23;3.40;50.80
1025;DHT22;501;48.214;11.350;2022-12-08T17:02:50;3.30;50.00
1025;DHT22;501;48.214;11.350;2022-12-08T17:05:18;3.20;49.70
1025;DHT22;501;48.214;11.350;2022-12-08T17:07:45;3.10;49.70
1025;DHT22;501;48.214;11.350;2022-12-08T17:10:14;3.00;50.00
1025;DHT22;501;48.214;11.350;2022-12-08T17:12:40;3.00;50.20
1025;DHT22;501;48.214;11.350;2022-12-08T17:15:09;3.00;50.40
1025;DHT22;501;48.214;11.350;2022-12-08T17:17:36;2.90;50.70
1025;DHT22;501;48.214;11.350;2022-12-08T17:20:04;2.90;50.40
1025;DHT22;501;48.214;11.350;2022-12-08T17:22:32;2.80;50.30
1025;DHT22;501;48.214;11.350;2022-12-08T17:24:58;2.80;50.50
1025;DHT22;501;48.214;11.350;2022-12-08T17:27:23;2.80;51.00
1025;DHT22;501;48.214;11.350;2022-12-08T17:29:49;2.70;50.90
1025;DHT22;501;48.214;11.350;2022-12-08T17:32:15;2.70;51.50
1025;DHT22;501;48.214;11.350;2022-12-08T17:34:41;2.70;50.80
1025;DHT22;501;48.214;11.350;2022-12-08T17:37:07;2.60;50.40
1025;DHT22;501;48.214;11.350;2022-12-08T17:39:32;2.60;50.50
1025;DHT22;501;48.214;11.350;2022-12-08T17:41:58;2.50;50.30
1025;DHT22;501;48.214;11.350;2022-12-08T17:44:24;2.50;51.60
1025;DHT22;501;48.214;11.350;2022-12-08T17:46:49;2.50;52.10
1025;DHT22;501;48.214;11.350;2022-12-08T17:49:25;2.50;50.80
1025;DHT22;501;48.214;11.350;2022-12-08T17:51:54;2.40;50.50
1025;DHT22;501;48.214;11.350;2022-12-08T17:54:20;2.40;50.40
1025;DHT22;501;48.214;11.350;2022-12-08T17:56:46;2.30;50.10
1025;DHT22;501;48.214;11.350;2022-12-08T17:59:12;2.30;50.50
1025;DHT22;501;48.214;11.350;2022-12-08T18:01:39;2.20;50.70
1025;DHT22;501;48.214;11.350;2022-12-08T18:04:07;2.20;50.70
1025;DHT22;501;48.214;11.350;2022-12-08T18:06:37;2.20;50.90
1025;DHT22;501;48.214;11.350;2022-12-08T18:09:05;2.10;50.90
1025;DHT22;501;48.214;11.350;2022-12-08T18:11:31;2.10;50.80
1025;DHT22;501;48.214;11.350;2022-12-08T18:13:57;2.00;50.60
1025;DHT22;501;48.214;11.350;2022-12-08T18:16:26;2.00;50.90
1025;DHT22;501;48.214;11.350;2022-12-08T18:18:52;1.90;51.40
1025;DHT22;501;48.214;11.350;2022-12-08T18:21:19;2.00;51.70
1025;DHT22;501;48.214;11.350;2022-12-08T18:23:45;1.90;51.60
1025;DHT22;501;48.214;11.350;2022-12-08T18:26:12;1.90;52.30
1025;DHT22;501;48.214;11.350;2022-12-08T18:28:39;1.90;52.00
1025;DHT22;501;48.214;11.350;2022-12-08T18:31:10;1.90;52.20
1025;DHT22;501;48.214;11.350;2022-12-08T18:33:38;1.80;52.20
1025;DHT22;501;48.214;11.350;2022-12-08T18:36:13;1.90;52.40
1025;DHT22;501;48.214;11.350;2022-12-08T18:38:39;1.80;52.40
1025;DHT22;501;48.214;11.350;2022-12-08T18:41:31;1.80;51.90
1025;DHT22;501;48.214;11.350;2022-12-08T18:43:57;1.80;51.90
1025;DHT22;501;48.214;11.350;2022-12-08T18:46:23;1.80;51.70
1025;DHT22;501;48.214;11.350;2022-12-08T18:48:50;1.80;51.60
1025;DHT22;501;48.214;11.350;2022-12-08T18:51:18;1.80;51.60